Time;durP1;ratioP1;P1;durP2;ratioP2;P2;SDS_P1;SDS_P2;PMS_P1;PMS_P2;Temp;Humidity;BMP_temperature;BMP_pressure;BME280_temperature;BME280_humidity;BME280_pressure;Samples;Min_cycle;Max_cycle;Signal;HPM_P1;HPM_P2
2022/08/01 00:00:47;;;;;;;;;;;20.60;96.50;;;;;;4959868;28;19933;-85
2022/08/01 00:03:16;;;;;;;;;;;20.60;96.60;;;;;;4951540;28;19930;-85
2022/08/01 00:05:45;;;;;;;;;;;20.60;96.40;;;;;;4967021;28;20329;-85
2022/08/01 00:08:12;;;;;;;;;;;20.60;96.40;;;;;;4966119;28;19934;-85
2022/08/01 00:10:40;;;;;;;;;;;20.60;96.20;;;;;;4933992;28;19938;-85
2022/08/01 00:13:07;;;;;;;;;;;20.60;96.20;;;;;;4965734;28;19922;-85
2022/08/01 00:15:37;;;;;;;;;;;20.60;96.40;;;;;;4965543;28;19937;-86
2022/08/01 00:18:04;;;;;;;;;;;20.70;96.40;;;;;;4937897;28;20514;-86
2022/08/01 00:20:32;;;;;;;;;;;20.50;96.30;;;;;;4949162;28;19934;-85
2022/08/01 00:23:01;;;;;;;;;;;20.50;96.40;;;;;;4948768;28;19930;-85
2022/08/01 00:25:29;;;;;;;;;;;20.40;96.50;;;;;;4937836;28;20366;-85
2022/08/01 00:28:01;;;;;;;;;;;20.30;96.60;;;;;;4966562;28;19926;-85
2022/08/01 00:30:30;;;;;;;;;;;20.30;96.80;;;;;;4972608;28;19926;-84
2022/08/01 00:32:58;;;;;;;;;;;20.20;96.80;;;;;;4968701;28;19937;-86
2022/08/01 00:35:26;;;;;;;;;;;20.20;96.90;;;;;;4985297;28;19937;-86
2022/08/01 00:37:53;;;;;;;;;;;20.20;97.10;;;;;;4989487;28;19914;-86
2022/08/01 00:40:21;;;;;;;;;;;20.10;96.80;;;;;;4983530;28;20271;-85
2022/08/01 00:42:49;;;;;;;;;;;20.10;96.80;;;;;;4965258;28;19937;-85
2022/08/01 00:45:16;;;;;;;;;;;20.10;97.00;;;;;;4962511;28;19933;-87
2022/08/01 00:47:44;;;;;;;;;;;20.10;97.10;;;;;;4977902;28;19937;-87
2022/08/01 00:50:11;;;;;;;;;;;20.00;97.10;;;;;;4984152;28;19937;-87
2022/08/01 00:52:40;;;;;;;;;;;20.00;97.10;;;;;;4975117;28;19930;-84
2022/08/01 00:55:08;;;;;;;;;;;20.00;97.30;;;;;;4934233;28;20297;-87
2022/08/01 00:57:41;;;;;;;;;;;19.90;97.10;;;;;;4966740;28;19926;-85
2022/08/01 01:00:29;;;;;;;;;;;19.90;97.30;;;;;;4972861;28;19930;-86
2022/08/01 01:02:59;;;;;;;;;;;19.90;97.50;;;;;;4960623;28;19926;-85
2022/08/01 01:05:27;;;;;;;;;;;19.80;97.30;;;;;;4974230;28;19926;-86
2022/08/01 01:08:06;;;;;;;;;;;20.00;97.30;;;;;;4969994;28;20009;-85
2022/08/01 01:10:40;;;;;;;;;;;19.80;97.40;;;;;;4970431;28;19937;-85
2022/08/01 01:13:10;;;;;;;;;;;19.80;97.30;;;;;;4976811;28;19930;-86
2022/08/01 01:15:41;;;;;;;;;;;19.80;97.50;;;;;;4970645;28;19926;-86
2022/08/01 01:18:11;;;;;;;;;;;19.80;97.50;;;;;;4969321;28;19934;-85
2022/08/01 01:20:41;;;;;;;;;;;19.80;97.30;;;;;;4970961;28;19930;-86
2022/08/01 01:23:27;;;;;;;;;;;19.80;97.40;;;;;;4985454;28;19945;-85
2022/08/01 01:26:15;;;;;;;;;;;19.80;97.50;;;;;;4974870;28;19963;-86
2022/08/01 01:28:58;;;;;;;;;;;19.80;97.50;;;;;;4977249;28;19926;-85
2022/08/01 01:31:27;;;;;;;;;;;19.80;97.60;;;;;;4959354;28;19926;-86
2022/08/01 01:33:55;;;;;;;;;;;19.70;97.50;;;;;;4969847;28;19930;-85
2022/08/01 01:36:23;;;;;;;;;;;19.70;97.60;;;;;;4970406;28;19926;-86
2022/08/01 01:38:52;;;;;;;;;;;19.70;97.50;;;;;;4972151;28;19926;-87
2022/08/01 01:41:20;;;;;;;;;;;19.70;97.40;;;;;;4966299;28;19926;-86
2022/08/01 01:43:50;;;;;;;;;;;19.70;97.40;;;;;;4981647;28;19945;-85
2022/08/01 01:46:22;;;;;;;;;;;19.80;97.40;;;;;;4971214;28;19950;-85
2022/08/01 01:48:50;;;;;;;;;;;19.80;97.60;;;;;;4972442;28;19933;-88
2022/08/01 01:51:20;;;;;;;;;;;19.80;97.50;;;;;;4977058;28;19937;-85
2022/08/01 01:53:48;;;;;;;;;;;19.80;97.40;;;;;;4959579;28;19937;-85
2022/08/01 01:56:17;;;;;;;;;;;19.80;97.30;;;;;;4970445;28;19933;-86
2022/08/01 01:58:45;;;;;;;;;;;19.80;97.30;;;;;;4971558;28;19930;-86
2022/08/01 02:01:12;;;;;;;;;;;19.80;97.40;;;;;;4954924;28;20325;-86
2022/08/01 02:03:43;;;;;;;;;;;19.70;97.50;;;;;;4970273;28;20033;-85
2022/08/01 02:06:13;;;;;;;;;;;19.70;97.50;;;;;;4971123;28;19930;-86
2022/08/01 02:08:42;;;;;;;;;;;19.70;97.50;;;;;;4973062;28;19933;-86
2022/08/01 02:11:18;;;;;;;;;;;19.70;97.60;;;;;;4969886;28;20404;-86
2022/08/01 02:13:49;;;;;;;;;;;19.60;97.70;;;;;;4978394;28;19926;-86
2022/08/01 02:16:17;;;;;;;;;;;19.60;97.60;;;;;;4970521;28;20329;-88
2022/08/01 02:18:44;;;;;;;;;;;19.60;97.70;;;;;;4983601;28;19930;-87
2022/08/01 02:21:13;;;;;;;;;;;19.50;97.60;;;;;;4983642;28;19926;-87
2022/08/01 02:23:42;;;;;;;;;;;19.50;97.80;;;;;;4984340;28;19926;-85
2022/08/01 02:26:12;;;;;;;;;;;19.40;97.70;;;;;;4978350;28;19937;-86
2022/08/01 02:28:47;;;;;;;;;;;19.40;98.00;;;;;;4979190;28;19941;-88
2022/08/01 02:31:16;;;;;;;;;;;19.30;98.10;;;;;;4975464;28;19940;-89
2022/08/01 02:33:46;;;;;;;;;;;19.20;98.20;;;;;;4988845;28;20476;-89
2022/08/01 02:36:16;;;;;;;;;;;19.10;98.40;;;;;;4993410;28;19932;-85
2022/08/01 02:39:19;;;;;;;;;;;19.10;98.30;;;;;;4984225;28;19930;-86
2022/08/01 02:41:47;;;;;;;;;;;19.00;98.40;;;;;;4989766;28;19932;-85
2022/08/01 02:44:28;;;;;;;;;;;19.00;98.40;;;;;;4994925;28;19926;-85
2022/08/01 02:47:02;;;;;;;;;;;19.00;98.40;;;;;;4980559;28;19927;-85
2022/08/01 02:49:33;;;;;;;;;;;19.00;98.50;;;;;;4963088;28;19926;-86
2022/08/01 02:52:03;;;;;;;;;;;19.00;98.50;;;;;;4941762;28;19933;-85
2022/08/01 02:54:32;;;;;;;;;;;18.90;98.50;;;;;;4972143;28;19971;-84
2022/08/01 02:57:00;;;;;;;;;;;18.90;98.40;;;;;;4971899;28;19926;-85
2022/08/01 02:59:30;;;;;;;;;;;18.80;98.80;;;;;;4970154;28;20022;-85
2022/08/01 03:01:59;;;;;;;;;;;18.80;98.80;;;;;;4982970;28;19941;-85
2022/08/01 03:04:29;;;;;;;;;;;18.70;98.90;;;;;;4971571;28;19937;-85
2022/08/01 03:06:58;;;;;;;;;;;18.70;99.30;;;;;;4969830;28;19930;-85
2022/08/01 03:09:27;;;;;;;;;;;18.60;99.10;;;;;;4971813;28;19926;-85
2022/08/01 03:11:56;;;;;;;;;;;18.60;99.00;;;;;;4970904;28;19930;-87
2022/08/01 03:14:25;;;;;;;;;;;18.60;99.00;;;;;;4971254;28;19930;-85
2022/08/01 03:16:53;;;;;;;;;;;18.60;99.40;;;;;;4937061;28;19930;-86
2022/08/01 03:19:22;;;;;;;;;;;18.50;99.20;;;;;;4969796;28;20386;-86
2022/08/01 03:21:50;;;;;;;;;;;18.50;99.30;;;;;;4968628;28;19926;-87
2022/08/01 03:24:18;;;;;;;;;;;18.50;99.10;;;;;;4970282;28;19926;-89
2022/08/01 03:26:47;;;;;;;;;;;18.40;99.50;;;;;;4968257;28;19941;-85
2022/08/01 03:29:21;;;;;;;;;;;18.40;99.50;;;;;;4968961;28;20057;-87
2022/08/01 03:31:49;;;;;;;;;;;18.40;99.90;;;;;;4965794;28;19937;-86
2022/08/01 03:34:17;;;;;;;;;;;18.30;99.60;;;;;;4969596;28;19933;-86
2022/08/01 03:36:44;;;;;;;;;;;18.30;99.80;;;;;;4970764;28;20017;-87
2022/08/01 03:39:12;;;;;;;;;;;18.30;99.80;;;;;;4970431;28;20355;-85
2022/08/01 03:41:41;;;;;;;;;;;18.20;99.80;;;;;;4970579;28;20416;-85
2022/08/01 03:44:20;;;;;;;;;;;18.20;99.80;;;;;;4985200;28;19934;-89
2022/08/01 03:46:49;;;;;;;;;;;18.20;99.90;;;;;;4975378;28;19937;-87
2022/08/01 03:49:19;;;;;;;;;;;18.10;99.80;;;;;;4965401;28;19935;-87
2022/08/01 03:51:51;;;;;;;;;;;18.20;99.80;;;;;;4967399;28;20297;-85
2022/08/01 03:54:21;;;;;;;;;;;18.10;99.90;;;;;;4971766;28;19926;-84
2022/08/01 03:56:48;;;;;;;;;;;18.10;99.90;;;;;;4971275;28;19933;-84
2022/08/01 03:59:16;;;;;;;;;;;18.10;99.90;;;;;;4952849;28;20274;-85
2022/08/01 04:01:45;;;;;;;;;;;18.20;99.90;;;;;;4953693;28;19930;-86
2022/08/01 04:04:13;;;;;;;;;;;18.20;99.90;;;;;;4966349;28;19944;-87
2022/08/01 04:06:41;;;;;;;;;;;18.30;99.90;;;;;;4954681;28;19930;-87
2022/08/01 04:09:08;;;;;;;;;;;18.30;99.90;;;;;;4983120;28;19930;-85
2022/08/01 04:11:40;;;;;;;;;;;18.40;99.90;;;;;;4974088;28;19926;-85
2022/08/01 04:14:08;;;;;;;;;;;18.40;99.90;;;;;;4968962;28;19930;-85
2022/08/01 04:16:36;;;;;;;;;;;18.40;99.90;;;;;;4970082;28;19926;-85
2022/08/01 04:19:07;;;;;;;;;;;18.40;99.90;;;;;;4969096;28;19937;-85
2022/08/01 04:21:35;;;;;;;;;;;18.40;99.90;;;;;;4958297;28;19949;-86
2022/08/01 04:24:12;;;;;;;;;;;18.40;99.90;;;;;;4979865;28;19926;-84
2022/08/01 04:26:41;;;;;;;;;;;18.50;99.90;;;;;;4982569;28;19926;-84
2022/08/01 04:29:09;;;;;;;;;;;18.50;99.90;;;;;;4981324;28;19938;-85
2022/08/01 04:31:39;;;;;;;;;;;18.50;99.90;;;;;;4971355;28;19926;-85
2022/08/01 04:34:07;;;;;;;;;;;18.40;99.90;;;;;;4973578;28;19926;-85
2022/08/01 04:36:36;;;;;;;;;;;18.40;99.90;;;;;;4979064;28;20408;-85
2022/08/01 04:39:04;;;;;;;;;;;18.40;99.90;;;;;;4959032;28;19930;-86
2022/08/01 04:41:33;;;;;;;;;;;18.30;99.90;;;;;;4956734;28;20401;-86
2022/08/01 04:44:02;;;;;;;;;;;18.30;99.90;;;;;;4968621;28;19933;-85
2022/08/01 04:46:29;;;;;;;;;;;18.30;99.90;;;;;;4973708;28;19945;-86
2022/08/01 04:48:57;;;;;;;;;;;18.30;99.90;;;;;;4954857;28;20499;-86
2022/08/01 04:51:25;;;;;;;;;;;18.30;99.90;;;;;;4971197;28;19927;-86
2022/08/01 04:53:53;;;;;;;;;;;18.40;99.90;;;;;;4954480;28;20378;-85
2022/08/01 04:56:21;;;;;;;;;;;18.40;99.90;;;;;;4970454;28;19926;-85
2022/08/01 04:59:39;;;;;;;;;;;18.50;99.90;;;;;;4970400;28;20274;-86
2022/08/01 05:01:47;;;;;;;;;;;18.50;99.90;;;;;;4965595;28;19934;-87
2022/08/01 05:04:15;;;;;;;;;;;18.50;99.90;;;;;;4951601;28;19970;-86
2022/08/01 05:06:42;;;;;;;;;;;18.50;99.90;;;;;;4968500;28;20306;-88
2022/08/01 05:09:10;;;;;;;;;;;18.50;99.90;;;;;;4970708;28;19927;-86
2022/08/01 05:11:37;;;;;;;;;;;18.60;99.90;;;;;;4972782;28;20022;-88
2022/08/01 05:14:06;;;;;;;;;;;18.60;99.90;;;;;;4977340;28;19949;-87
2022/08/01 05:16:33;;;;;;;;;;;19.40;99.90;;;;;;4976221;28;19956;-87
2022/08/01 05:19:02;;;;;;;;;;;18.60;99.90;;;;;;4978234;28;19934;-86
2022/08/01 05:21:29;;;;;;;;;;;18.60;99.90;;;;;;4976521;28;19937;-87
2022/08/01 05:23:57;;;;;;;;;;;18.60;99.90;;;;;;4970863;28;20006;-88
2022/08/01 05:26:25;;;;;;;;;;;18.60;99.90;;;;;;4970486;28;19927;-87
2022/08/01 05:28:53;;;;;;;;;;;18.70;99.90;;;;;;4969542;28;19926;-87
2022/08/01 05:31:20;;;;;;;;;;;18.70;99.90;;;;;;4952990;28;19934;-88
2022/08/01 05:33:47;;;;;;;;;;;18.80;99.90;;;;;;4968416;28;20169;-88
2022/08/01 05:36:15;;;;;;;;;;;18.80;99.90;;;;;;4969381;28;19929;-84
2022/08/01 05:38:46;;;;;;;;;;;18.80;99.90;;;;;;4955343;28;19926;-90
2022/08/01 05:41:13;;;;;;;;;;;18.90;99.90;;;;;;4970817;28;19930;-86
2022/08/01 05:43:41;;;;;;;;;;;18.90;99.90;;;;;;4998594;28;20180;-86
2022/08/01 05:46:09;;;;;;;;;;;19.00;99.90;;;;;;4971720;28;19926;-86
2022/08/01 05:48:36;;;;;;;;;;;19.00;99.90;;;;;;4970259;28;19926;-85
2022/08/01 05:51:04;;;;;;;;;;;19.10;99.80;;;;;;4953939;28;19930;-86
2022/08/01 05:53:34;;;;;;;;;;;19.10;99.90;;;;;;4968928;28;19933;-85
2022/08/01 05:56:01;;;;;;;;;;;19.10;99.90;;;;;;4953522;28;19926;-85
2022/08/01 05:58:29;;;;;;;;;;;19.10;99.90;;;;;;4951926;28;19930;-85
2022/08/01 06:00:56;;;;;;;;;;;19.20;99.90;;;;;;4966466;28;19938;-84
2022/08/01 06:03:24;;;;;;;;;;;19.30;99.90;;;;;;4965420;28;19937;-84
2022/08/01 06:05:52;;;;;;;;;;;19.30;99.80;;;;;;4967402;28;19937;-85
2022/08/01 06:08:20;;;;;;;;;;;19.40;99.60;;;;;;4960854;28;19931;-85
2022/08/01 06:10:47;;;;;;;;;;;19.40;99.80;;;;;;4965221;28;19926;-84
2022/08/01 06:13:15;;;;;;;;;;;19.50;99.60;;;;;;4972008;28;19937;-85
2022/08/01 06:15:43;;;;;;;;;;;19.50;99.50;;;;;;4979391;28;19926;-86
2022/08/01 06:18:10;;;;;;;;;;;19.60;99.50;;;;;;4979655;28;19933;-84
2022/08/01 06:20:38;;;;;;;;;;;19.70;99.50;;;;;;4984740;28;19933;-84
2022/08/01 06:23:06;;;;;;;;;;;19.70;99.40;;;;;;4979825;28;19978;-85
2022/08/01 06:25:54;;;;;;;;;;;19.80;99.30;;;;;;4976240;28;19926;-88
2022/08/01 06:28:22;;;;;;;;;;;19.80;99.20;;;;;;4967318;28;19929;-87
2022/08/01 06:30:49;;;;;;;;;;;19.90;99.10;;;;;;4968638;28;19953;-86
2022/08/01 06:33:17;;;;;;;;;;;19.90;99.10;;;;;;4974237;28;19926;-85
2022/08/01 06:35:44;;;;;;;;;;;20.00;99.10;;;;;;4961267;28;19937;-85
2022/08/01 06:38:12;;;;;;;;;;;20.00;98.90;;;;;;4968191;28;19927;-89
2022/08/01 06:40:40;;;;;;;;;;;20.00;98.90;;;;;;4944204;28;20452;-87
2022/08/01 06:43:11;;;;;;;;;;;20.00;99.10;;;;;;4942884;29;19934;-85
2022/08/01 06:45:39;;;;;;;;;;;20.10;99.10;;;;;;4971549;28;20726;-85
2022/08/01 06:48:13;;;;;;;;;;;20.10;98.90;;;;;;4976519;28;19937;-84
2022/08/01 06:50:46;;;;;;;;;;;20.10;98.80;;;;;;4979848;28;19930;-85
2022/08/01 06:53:13;;;;;;;;;;;20.20;98.90;;;;;;4961284;28;19946;-85
2022/08/01 06:55:41;;;;;;;;;;;20.20;99.00;;;;;;4975727;28;19930;-84
2022/08/01 06:58:09;;;;;;;;;;;20.30;98.80;;;;;;4971425;28;19956;-86
2022/08/01 07:00:36;;;;;;;;;;;20.30;98.70;;;;;;4952610;28;19926;-85
2022/08/01 07:03:03;;;;;;;;;;;20.00;98.60;;;;;;4969180;28;19933;-85
2022/08/01 07:05:31;;;;;;;;;;;20.30;98.80;;;;;;4968175;28;19933;-85
2022/08/01 07:07:58;;;;;;;;;;;20.30;98.70;;;;;;4969234;28;19937;-84
2022/08/01 07:10:26;;;;;;;;;;;20.30;98.70;;;;;;4970446;28;19949;-85
2022/08/01 07:12:54;;;;;;;;;;;20.30;98.70;;;;;;4952533;28;19938;-85
2022/08/01 07:15:26;;;;;;;;;;;20.30;98.70;;;;;;4949183;28;19930;-85
2022/08/01 07:17:53;;;;;;;;;;;20.30;98.60;;;;;;4969872;28;20309;-86
2022/08/01 07:20:21;;;;;;;;;;;20.30;98.70;;;;;;4963766;28;20278;-84
2022/08/01 07:22:49;;;;;;;;;;;20.40;98.70;;;;;;4959580;28;19946;-85
2022/08/01 07:25:17;;;;;;;;;;;20.40;98.60;;;;;;4971102;28;19930;-85
2022/08/01 07:27:45;;;;;;;;;;;20.50;98.60;;;;;;4990090;28;19934;-85
2022/08/01 07:30:13;;;;;;;;;;;20.50;98.50;;;;;;4968192;28;19935;-86
2022/08/01 07:32:40;;;;;;;;;;;20.60;98.50;;;;;;4964759;28;19930;-86
2022/08/01 07:35:08;;;;;;;;;;;20.60;98.60;;;;;;4976263;28;19927;-85
2022/08/01 07:37:35;;;;;;;;;;;20.60;98.50;;;;;;4974335;28;20354;-85
2022/08/01 07:40:17;;;;;;;;;;;20.60;98.40;;;;;;4969715;28;19929;-85
2022/08/01 07:42:45;;;;;;;;;;;21.00;98.50;;;;;;4967925;28;19926;-86
2022/08/01 07:45:14;;;;;;;;;;;20.80;98.40;;;;;;4967252;28;19933;-86
2022/08/01 07:47:41;;;;;;;;;;;20.80;98.40;;;;;;4963137;28;19926;-85
2022/08/01 07:50:09;;;;;;;;;;;20.90;98.10;;;;;;4968855;28;19930;-85
2022/08/01 07:52:37;;;;;;;;;;;21.00;98.00;;;;;;4962603;28;19926;-85
2022/08/01 07:55:05;;;;;;;;;;;21.00;98.00;;;;;;4961061;28;19946;-85
2022/08/01 07:57:32;;;;;;;;;;;21.00;97.90;;;;;;4965714;28;19933;-85
2022/08/01 08:00:00;;;;;;;;;;;21.10;97.90;;;;;;4967895;28;19957;-84
2022/08/01 08:02:30;;;;;;;;;;;21.10;98.00;;;;;;4947686;28;19930;-85
2022/08/01 08:04:58;;;;;;;;;;;21.20;97.80;;;;;;4944507;28;19926;-85
2022/08/01 08:07:26;;;;;;;;;;;21.20;97.50;;;;;;4951657;28;20230;-85
2022/08/01 08:09:54;;;;;;;;;;;21.30;97.40;;;;;;4965823;28;19941;-84
2022/08/01 08:12:22;;;;;;;;;;;21.40;97.40;;;;;;4966737;28;19930;-84
2022/08/01 08:14:55;;;;;;;;;;;21.20;97.40;;;;;;4959635;28;19930;-85
2022/08/01 08:17:24;;;;;;;;;;;21.50;97.30;;;;;;4964109;28;19933;-86
2022/08/01 08:19:52;;;;;;;;;;;21.50;97.30;;;;;;4980821;28;19934;-84
2022/08/01 08:22:19;;;;;;;;;;;21.60;97.20;;;;;;4973459;28;20385;-85
2022/08/01 08:24:47;;;;;;;;;;;21.80;97.10;;;;;;4948944;29;19927;-84
2022/08/01 08:27:14;;;;;;;;;;;21.80;96.80;;;;;;4969161;28;19929;-85
2022/08/01 08:29:42;;;;;;;;;;;21.90;96.80;;;;;;4962452;28;19930;-84
2022/08/01 08:32:12;;;;;;;;;;;22.00;96.40;;;;;;4970656;28;20302;-85
2022/08/01 08:34:40;;;;;;;;;;;22.10;96.60;;;;;;4951408;28;19934;-85
2022/08/01 08:37:07;;;;;;;;;;;22.10;96.30;;;;;;4969370;28;19934;-83
2022/08/01 08:39:35;;;;;;;;;;;22.10;96.10;;;;;;4963092;28;19927;-85
2022/08/01 08:42:12;;;;;;;;;;;22.20;96.30;;;;;;4950043;28;19949;-88
2022/08/01 08:44:41;;;;;;;;;;;22.20;96.00;;;;;;4941767;28;19933;-85
2022/08/01 08:47:11;;;;;;;;;;;22.60;96.10;;;;;;4960075;28;19964;-86
2022/08/01 08:49:46;;;;;;;;;;;22.30;95.90;;;;;;4962979;28;19926;-85
2022/08/01 08:52:17;;;;;;;;;;;22.40;95.80;;;;;;4973061;28;19933;-84
2022/08/01 08:54:45;;;;;;;;;;;22.40;95.60;;;;;;4941743;28;19937;-86
2022/08/01 08:57:13;;;;;;;;;;;22.50;95.60;;;;;;4967086;28;19926;-86
2022/08/01 08:59:44;;;;;;;;;;;22.50;95.40;;;;;;4955176;28;19957;-85
2022/08/01 09:02:12;;;;;;;;;;;22.60;95.40;;;;;;4961388;28;19933;-84
2022/08/01 09:04:41;;;;;;;;;;;22.70;95.30;;;;;;4961402;28;19926;-86
2022/08/01 09:07:13;;;;;;;;;;;22.70;94.90;;;;;;4948361;28;19934;-85
2022/08/01 09:09:41;;;;;;;;;;;22.80;94.60;;;;;;4963832;28;19935;-86
2022/08/01 09:12:10;;;;;;;;;;;22.90;94.70;;;;;;4963229;28;20341;-85
2022/08/01 09:14:44;;;;;;;;;;;22.90;94.40;;;;;;4968473;28;19926;-86
2022/08/01 09:17:13;;;;;;;;;;;23.00;93.40;;;;;;4963807;28;19926;-85
2022/08/01 09:19:42;;;;;;;;;;;23.10;93.90;;;;;;4961659;28;20297;-85
2022/08/01 09:22:11;;;;;;;;;;;23.30;93.90;;;;;;4962742;28;19935;-85
2022/08/01 09:24:40;;;;;;;;;;;23.40;93.70;;;;;;4963416;28;20572;-85
2022/08/01 09:27:15;;;;;;;;;;;23.50;93.60;;;;;;4961118;28;19933;-86
2022/08/01 09:29:46;;;;;;;;;;;23.60;93.30;;;;;;4953442;28;19927;-86
2022/08/01 09:32:29;;;;;;;;;;;23.70;92.90;;;;;;4969880;28;19934;-86
2022/08/01 09:35:28;;;;;;;;;;;23.80;93.00;;;;;;4971629;28;19961;-86
2022/08/01 09:38:14;;;;;;;;;;;23.90;92.80;;;;;;4970055;28;19934;-85
2022/08/01 09:40:52;;;;;;;;;;;23.90;92.90;;;;;;4981065;28;20282;-85
2022/08/01 09:43:21;;;;;;;;;;;23.90;92.60;;;;;;4954622;28;19942;-84
2022/08/01 09:45:49;;;;;;;;;;;23.90;92.60;;;;;;4961712;28;19926;-85
2022/08/01 09:48:20;;;;;;;;;;;23.90;92.80;;;;;;4969261;28;19941;-84
2022/08/01 09:50:56;;;;;;;;;;;23.90;92.70;;;;;;4973131;28;19934;-86
2022/08/01 09:54:00;;;;;;;;;;;23.80;92.70;;;;;;4969821;28;20515;-85
2022/08/01 09:56:35;;;;;;;;;;;23.90;92.70;;;;;;4968091;28;19932;-85
2022/08/01 09:59:02;;;;;;;;;;;24.00;92.50;;;;;;4970939;28;19933;-85
2022/08/01 10:01:47;;;;;;;;;;;24.10;92.20;;;;;;4964695;28;19930;-85
2022/08/01 10:04:16;;;;;;;;;;;24.20;91.60;;;;;;4968042;28;20324;-86
2022/08/01 10:06:49;;;;;;;;;;;24.20;92.30;;;;;;4964395;28;19941;-86
2022/08/01 10:09:27;;;;;;;;;;;24.30;92.20;;;;;;4970368;28;19953;-87
2022/08/01 10:12:07;;;;;;;;;;;24.30;92.10;;;;;;4971997;28;20519;-85
2022/08/01 10:14:43;;;;;;;;;;;24.40;92.00;;;;;;4972016;28;20405;-87
2022/08/01 10:17:16;;;;;;;;;;;24.50;91.70;;;;;;4972747;28;20214;-86
2022/08/01 10:19:49;;;;;;;;;;;24.60;91.40;;;;;;4970186;28;19926;-86
2022/08/01 10:22:18;;;;;;;;;;;24.70;91.50;;;;;;4961387;28;19930;-88
2022/08/01 10:24:47;;;;;;;;;;;24.80;91.10;;;;;;4978193;28;20688;-86
2022/08/01 10:27:16;;;;;;;;;;;24.80;90.80;;;;;;4978536;28;19934;-87
2022/08/01 10:30:05;;;;;;;;;;;24.90;91.30;;;;;;4973447;28;19940;-85
2022/08/01 10:32:49;;;;;;;;;;;25.00;90.70;;;;;;4973352;28;19930;-88
2022/08/01 10:35:18;;;;;;;;;;;25.10;90.40;;;;;;4971242;28;19933;-88
2022/08/01 10:38:07;;;;;;;;;;;25.40;90.70;;;;;;4979941;28;19926;-87
2022/08/01 10:40:41;;;;;;;;;;;25.20;90.50;;;;;;4969598;28;19950;-86
2022/08/01 10:43:10;;;;;;;;;;;25.30;90.50;;;;;;4984382;28;19934;-88
2022/08/01 10:45:38;;;;;;;;;;;25.30;90.10;;;;;;4967675;28;19926;-88
2022/08/01 10:48:14;;;;;;;;;;;25.40;90.10;;;;;;4952326;28;19934;-88
2022/08/01 10:50:48;;;;;;;;;;;25.40;89.80;;;;;;4952424;28;20397;-87
2022/08/01 10:53:21;;;;;;;;;;;25.40;90.10;;;;;;4968564;28;19934;-86
2022/08/01 10:55:56;;;;;;;;;;;25.40;88.80;;;;;;4974064;28;19930;-87
2022/08/01 10:58:37;;;;;;;;;;;25.50;88.60;;;;;;4971043;28;19941;-90
2022/08/01 11:01:24;;;;;;;;;;;25.60;88.90;;;;;;4969455;28;20309;-86
2022/08/01 11:03:55;;;;;;;;;;;25.70;88.80;;;;;;4965706;28;20401;-86
2022/08/01 11:06:31;;;;;;;;;;;25.80;88.60;;;;;;4967957;28;19933;-85
2022/08/01 11:09:11;;;;;;;;;;;26.00;88.20;;;;;;4965149;28;20409;-85
2022/08/01 11:12:04;;;;;;;;;;;26.50;87.10;;;;;;4971102;28;19941;-85
2022/08/01 11:14:34;;;;;;;;;;;26.20;85.50;;;;;;4971388;28;19934;-84
2022/08/01 11:17:39;;;;;;;;;;;26.20;86.70;;;;;;4973678;28;20313;-91
2022/08/01 11:20:08;;;;;;;;;;;26.30;85.80;;;;;;4972484;28;19937;-87
2022/08/01 11:22:55;;;;;;;;;;;26.20;86.80;;;;;;4974478;28;19930;-85
2022/08/01 11:25:23;;;;;;;;;;;26.30;86.40;;;;;;4971987;28;19927;-87
2022/08/01 11:28:14;;;;;;;;;;;26.30;85.70;;;;;;4972528;28;19941;-87
2022/08/01 11:30:51;;;;;;;;;;;26.40;86.10;;;;;;4957387;28;19995;-87
2022/08/01 11:33:39;;;;;;;;;;;26.40;85.30;;;;;;4973736;28;20544;-84
2022/08/01 11:36:09;;;;;;;;;;;26.40;85.80;;;;;;4971861;28;19926;-87
2022/08/01 11:38:39;;;;;;;;;;;26.50;85.30;;;;;;4972193;28;19930;-87
2022/08/01 11:41:13;;;;;;;;;;;26.60;84.70;;;;;;4974726;28;19926;-86
2022/08/01 11:43:54;;;;;;;;;;;26.80;85.30;;;;;;4989101;28;19934;-85
2022/08/01 11:47:02;;;;;;;;;;;26.80;84.40;;;;;;4969514;28;20014;-87
2022/08/01 11:49:36;;;;;;;;;;;26.80;82.70;;;;;;4912625;29;20552;-86
2022/08/01 11:52:15;;;;;;;;;;;26.80;83.30;;;;;;4913700;29;19961;-86
2022/08/01 11:54:45;;;;;;;;;;;26.80;83.20;;;;;;4946520;28;19941;-83
2022/08/01 11:57:14;;;;;;;;;;;26.90;82.20;;;;;;4955271;28;19934;-86
2022/08/01 11:59:48;;;;;;;;;;;26.90;82.50;;;;;;4958076;28;19934;-84
2022/08/01 12:02:38;;;;;;;;;;;26.90;83.40;;;;;;4955208;28;19935;-85
2022/08/01 12:05:11;;;;;;;;;;;26.80;81.80;;;;;;4957793;28;19926;-87
2022/08/01 12:07:41;;;;;;;;;;;27.90;84.00;;;;;;4956659;28;19929;-87
2022/08/01 12:10:16;;;;;;;;;;;26.60;82.10;;;;;;4957896;28;20003;-85
2022/08/01 12:12:43;;;;;;;;;;;26.80;82.60;;;;;;4953044;28;20461;-86
2022/08/01 12:15:11;;;;;;;;;;;26.60;82.40;;;;;;4939026;28;19945;-89
2022/08/01 12:17:40;;;;;;;;;;;26.70;82.70;;;;;;4962596;28;19931;-85
2022/08/01 12:20:29;;;;;;;;;;;26.70;82.30;;;;;;4961618;28;19926;-87
2022/08/01 12:23:07;;;;;;;;;;;26.60;82.90;;;;;;4961295;28;20000;-85
2022/08/01 12:25:36;;;;;;;;;;;26.60;81.90;;;;;;4960114;28;19930;-84
2022/08/01 12:28:04;;;;;;;;;;;27.20;82.70;;;;;;4955139;28;19930;-85
2022/08/01 12:30:36;;;;;;;;;;;26.60;82.40;;;;;;4956841;28;19953;-85
2022/08/01 12:33:04;;;;;;;;;;;26.70;83.10;;;;;;4954599;28;20186;-88
2022/08/01 12:35:33;;;;;;;;;;;26.90;82.30;;;;;;4953043;28;19935;-85
2022/08/01 12:38:02;;;;;;;;;;;26.90;80.70;;;;;;4952542;28;20405;-86
2022/08/01 12:40:34;;;;;;;;;;;27.00;82.20;;;;;;4955127;28;19957;-87
2022/08/01 12:43:03;;;;;;;;;;;27.10;81.40;;;;;;4960477;28;19953;-85
2022/08/01 12:45:34;;;;;;;;;;;27.10;80.50;;;;;;4958146;28;19934;-85
2022/08/01 12:48:05;;;;;;;;;;;27.20;81.00;;;;;;4954292;28;19946;-84
2022/08/01 12:50:38;;;;;;;;;;;27.20;81.30;;;;;;4965874;28;19930;-84
2022/08/01 12:53:05;;;;;;;;;;;27.30;80.90;;;;;;4967548;28;19931;-87
2022/08/01 12:55:42;;;;;;;;;;;27.50;80.70;;;;;;4975387;28;19933;-85
2022/08/01 12:58:33;;;;;;;;;;;27.70;80.60;;;;;;4971171;28;20217;-86
2022/08/01 13:01:03;;;;;;;;;;;27.80;80.90;;;;;;4954308;28;19937;-85
2022/08/01 13:03:31;;;;;;;;;;;27.80;80.40;;;;;;4972027;28;19934;-84
2022/08/01 13:06:00;;;;;;;;;;;27.80;80.30;;;;;;4966443;28;20441;-85
2022/08/01 13:08:32;;;;;;;;;;;27.60;79.70;;;;;;4955066;28;20318;-85
2022/08/01 13:11:05;;;;;;;;;;;27.40;80.80;;;;;;4958227;28;19934;-84
2022/08/01 13:13:49;;;;;;;;;;;27.40;80.40;;;;;;4978644;28;19935;-85
2022/08/01 13:16:18;;;;;;;;;;;27.30;80.90;;;;;;4966091;28;19935;-84
2022/08/01 13:19:05;;;;;;;;;;;27.20;80.80;;;;;;4955281;28;19930;-84
2022/08/01 13:21:35;;;;;;;;;;;27.40;81.50;;;;;;4954107;28;19949;-87
2022/08/01 13:24:27;;;;;;;;;;;27.60;81.70;;;;;;4968417;28;19938;-85
2022/08/01 13:26:58;;;;;;;;;;;27.70;81.30;;;;;;4956792;28;19941;-86
2022/08/01 13:29:30;;;;;;;;;;;27.70;79.30;;;;;;4956849;28;20287;-88
2022/08/01 13:32:00;;;;;;;;;;;27.80;80.50;;;;;;4949265;28;19942;-85
2022/08/01 13:34:34;;;;;;;;;;;27.80;80.20;;;;;;4957787;28;19930;-86
2022/08/01 13:37:02;;;;;;;;;;;27.80;80.00;;;;;;4952261;28;19942;-86
2022/08/01 13:39:41;;;;;;;;;;;27.80;79.70;;;;;;4958471;28;19926;-84
2022/08/01 13:42:11;;;;;;;;;;;28.00;79.30;;;;;;4962711;28;19945;-83
2022/08/01 13:44:45;;;;;;;;;;;28.00;78.30;;;;;;4964441;28;19934;-84
2022/08/01 13:47:14;;;;;;;;;;;28.10;79.00;;;;;;4960052;28;20407;-82
2022/08/01 13:49:44;;;;;;;;;;;28.40;78.90;;;;;;4959048;28;19934;-85
2022/08/01 13:52:13;;;;;;;;;;;28.80;78.40;;;;;;4963674;28;20503;-84
2022/08/01 13:54:43;;;;;;;;;;;29.30;77.70;;;;;;4951639;28;20283;-84
2022/08/01 13:57:16;;;;;;;;;;;29.90;76.60;;;;;;4954782;28;19937;-82
2022/08/01 14:00:09;;;;;;;;;;;30.10;75.20;;;;;;4959334;28;19934;-87
2022/08/01 14:02:40;;;;;;;;;;;29.90;75.80;;;;;;4961462;28;19930;-82
2022/08/01 14:05:08;;;;;;;;;;;29.60;75.60;;;;;;4964538;28;20397;-84
2022/08/01 14:07:36;;;;;;;;;;;29.40;75.80;;;;;;4952135;28;19930;-85
2022/08/01 14:10:05;;;;;;;;;;;29.50;75.80;;;;;;4978766;28;19926;-85
2022/08/01 14:12:48;;;;;;;;;;;29.60;75.50;;;;;;4956230;28;21048;-88
2022/08/01 14:15:17;;;;;;;;;;;29.70;75.60;;;;;;4956833;28;19941;-83
2022/08/01 14:18:31;;;;;;;;;;;29.70;74.70;;;;;;4959907;28;19934;-87
2022/08/01 14:20:59;;;;;;;;;;;29.60;75.20;;;;;;4960181;28;19926;-85
2022/08/01 14:23:32;;;;;;;;;;;29.50;75.40;;;;;;4948630;28;19953;-84
2022/08/01 14:26:00;;;;;;;;;;;29.30;74.60;;;;;;4952205;28;19926;-86
2022/08/01 14:28:38;;;;;;;;;;;29.10;74.70;;;;;;4953370;28;19957;-84
2022/08/01 14:31:07;;;;;;;;;;;29.00;75.60;;;;;;4952693;28;19933;-87
2022/08/01 14:33:35;;;;;;;;;;;29.10;75.00;;;;;;4961585;28;20388;-86
2022/08/01 14:36:03;;;;;;;;;;;29.60;75.00;;;;;;4964432;28;19934;-86
2022/08/01 14:38:51;;;;;;;;;;;30.20;74.70;;;;;;4960556;28;19930;-84
2022/08/01 14:41:18;;;;;;;;;;;30.80;73.50;;;;;;4947458;28;20006;-85